<?xml version="1.0" encoding="UTF-8" standalone="no" ?>
<gpx xmlns="http://www.topografix.com/GPX/1/1" xmlns:xsi="http://www.w3.org/2001/XMLSchema-instance" xsi:schemaLocation="http://www.topografix.com/GPX/1/1 http://www.topografix.com/GPX/1/1/gpx.xsd" version="1.1" creator="VisuGPX - https://www.visugpx.com">
  <metadata>
    <name>sejour gov alsace</name>
  </metadata>
  <wpt lat="48.06424" lon="7.02221">
    <ele>1132</ele>
    <name><![CDATA[Col de la Schlucht]]></name>
    <desc><![CDATA[Parking]]></desc>
    <cmt><![CDATA[Parking]]></cmt>
  </wpt>
  <wpt lat="48.04158" lon="7.29947">
    <ele>223</ele>
    <name><![CDATA[Eguisheim]]></name>
  </wpt>
  <wpt lat="48.1793" lon="7.31018">
    <ele>275</ele>
    <name><![CDATA[Hunawihr]]></name>
  </wpt>
  <wpt lat="48.13923" lon="7.25933">
    <ele>251</ele>
    <name><![CDATA[Kaysersberg]]></name>
  </wpt>
  <wpt lat="48.14587" lon="7.25086">
    <ele>290</ele>
    <name><![CDATA[Kaysersberg-CCAS]]></name>
    <desc><![CDATA[3 Rue Rene le Guen]]></desc>
    <cmt><![CDATA[3 Rue Rene le Guen]]></cmt>
  </wpt>
  <wpt lat="48.14668" lon="7.25549">
    <ele>261</ele>
    <name><![CDATA[Kaysersberg-Salle de Sport]]></name>
  </wpt>
  <wpt lat="48.11261" lon="7.10019">
    <ele>958</ele>
    <name><![CDATA[Lac Noir]]></name>
  </wpt>
  <wpt lat="48.17" lon="7.12576">
    <ele>667</ele>
    <name><![CDATA[Le Bonhomme]]></name>
  </wpt>
  <wpt lat="48.05292" lon="6.9482">
    <ele>918</ele>
    <name><![CDATA[Lispach]]></name>
  </wpt>
  <wpt lat="48.16758" lon="7.29424">
    <ele>321</ele>
    <name><![CDATA[Riquewihr]]></name>
  </wpt>
  <wpt lat="48.23274" lon="7.36606">
    <ele>254</ele>
    <name><![CDATA[St-Hippolyte]]></name>
  </wpt>
  <wpt lat="48.22694" lon="7.30439">
    <ele>466</ele>
    <name><![CDATA[Thannenkirch]]></name>
  </wpt>
  <trk>
    <name><![CDATA[04B-Riquewihr-Hunawihr-Ribeauvillé (16,4 Km & 650 m)]]></name>
    <trkseg>
      <trkpt lat="48.16761" lon="7.2942">
        <ele>320</ele>
        <time>2021-04-26T15:19:16Z</time>
      </trkpt>
      <trkpt lat="48.16751" lon="7.29429">
        <ele>319</ele>
        <time>2021-04-26T15:19:32Z</time>
      </trkpt>
      <trkpt lat="48.16743" lon="7.29449">
        <ele>318</ele>
        <time>2021-04-26T15:19:52Z</time>
      </trkpt>
      <trkpt lat="48.16732" lon="7.29465">
        <ele>317</ele>
        <time>2021-04-26T15:20:13Z</time>
      </trkpt>
      <trkpt lat="48.16734" lon="7.29488">
        <ele>316</ele>
        <time>2021-04-26T15:20:34Z</time>
      </trkpt>
      <trkpt lat="48.16778" lon="7.29508">
        <ele>315</ele>
        <time>2021-04-26T15:21:35Z</time>
      </trkpt>
      <trkpt lat="48.16834" lon="7.29512">
        <ele>315</ele>
        <time>2021-04-26T15:22:50Z</time>
      </trkpt>
      <trkpt lat="48.16954" lon="7.2949">
        <ele>331</ele>
        <time>2021-04-26T15:25:31Z</time>
      </trkpt>
      <trkpt lat="48.16985" lon="7.29483">
        <ele>336</ele>
        <time>2021-04-26T15:26:13Z</time>
      </trkpt>
      <trkpt lat="48.17052" lon="7.29447">
        <ele>346</ele>
        <time>2021-04-26T15:27:48Z</time>
      </trkpt>
      <trkpt lat="48.17137" lon="7.29465">
        <ele>359</ele>
        <time>2021-04-26T15:29:42Z</time>
      </trkpt>
      <trkpt lat="48.17223" lon="7.29506">
        <ele>371</ele>
        <time>2021-04-26T15:31:43Z</time>
      </trkpt>
      <trkpt lat="48.17301" lon="7.29616">
        <ele>378</ele>
        <time>2021-04-26T15:34:06Z</time>
      </trkpt>
      <trkpt lat="48.17581" lon="7.30051">
        <ele>338</ele>
        <time>2021-04-26T15:43:04Z</time>
      </trkpt>
      <trkpt lat="48.17788" lon="7.30457">
        <ele>313</ele>
        <time>2021-04-26T15:50:39Z</time>
      </trkpt>
      <trkpt lat="48.17946" lon="7.30732">
        <ele>289</ele>
        <time>2021-04-26T15:56:02Z</time>
      </trkpt>
      <trkpt lat="48.17965" lon="7.30739">
        <ele>288</ele>
        <time>2021-04-26T15:56:28Z</time>
      </trkpt>
      <trkpt lat="48.17969" lon="7.3073">
        <ele>288</ele>
        <time>2021-04-26T15:56:37Z</time>
      </trkpt>
      <trkpt lat="48.17991" lon="7.30782">
        <ele>285</ele>
        <time>2021-04-26T15:57:32Z</time>
      </trkpt>
      <trkpt lat="48.17996" lon="7.3083">
        <ele>282</ele>
        <time>2021-04-26T15:58:15Z</time>
      </trkpt>
      <trkpt lat="48.18147" lon="7.30857">
        <ele>281</ele>
        <time>2021-04-26T16:01:38Z</time>
      </trkpt>
      <trkpt lat="48.18523" lon="7.30989">
        <ele>299</ele>
        <time>2021-04-26T16:10:14Z</time>
      </trkpt>
      <trkpt lat="48.1897" lon="7.31118">
        <ele>305</ele>
        <time>2021-04-26T16:20:21Z</time>
      </trkpt>
      <trkpt lat="48.19251" lon="7.31227">
        <ele>283</ele>
        <time>2021-04-26T16:26:48Z</time>
      </trkpt>
      <trkpt lat="48.19395" lon="7.31393">
        <ele>269</ele>
        <time>2021-04-26T16:30:51Z</time>
      </trkpt>
      <trkpt lat="48.19433" lon="7.3141">
        <ele>267</ele>
        <time>2021-04-26T16:31:44Z</time>
      </trkpt>
      <trkpt lat="48.19386" lon="7.31497">
        <ele>266</ele>
        <time>2021-04-26T16:33:23Z</time>
      </trkpt>
      <trkpt lat="48.19383" lon="7.31742">
        <ele>260</ele>
        <time>2021-04-26T16:37:01Z</time>
      </trkpt>
      <trkpt lat="48.19509" lon="7.31881">
        <ele>253</ele>
        <time>2021-04-26T16:40:30Z</time>
      </trkpt>
      <trkpt lat="48.19551" lon="7.31814">
        <ele>256</ele>
        <time>2021-04-26T16:41:52Z</time>
      </trkpt>
      <trkpt lat="48.19588" lon="7.31888">
        <ele>256</ele>
        <time>2021-04-26T16:43:14Z</time>
      </trkpt>
      <trkpt lat="48.19676" lon="7.31722">
        <ele>264</ele>
        <time>2021-04-26T16:46:23Z</time>
      </trkpt>
      <trkpt lat="48.19682" lon="7.31654">
        <ele>264</ele>
        <time>2021-04-26T16:47:24Z</time>
      </trkpt>
      <trkpt lat="48.19674" lon="7.31633">
        <ele>263</ele>
        <time>2021-04-26T16:47:45Z</time>
      </trkpt>
      <trkpt lat="48.19663" lon="7.31579">
        <ele>260</ele>
        <time>2021-04-26T16:48:35Z</time>
      </trkpt>
      <trkpt lat="48.19654" lon="7.3155">
        <ele>261</ele>
        <time>2021-04-26T16:49:04Z</time>
      </trkpt>
      <trkpt lat="48.19599" lon="7.31533">
        <ele>261</ele>
        <time>2021-04-26T16:50:19Z</time>
      </trkpt>
      <trkpt lat="48.19599" lon="7.31458">
        <ele>263</ele>
        <time>2021-04-26T16:51:26Z</time>
      </trkpt>
      <trkpt lat="48.19553" lon="7.31438">
        <ele>263</ele>
        <time>2021-04-26T16:52:29Z</time>
      </trkpt>
      <trkpt lat="48.19514" lon="7.31401">
        <ele>264</ele>
        <time>2021-04-26T16:53:31Z</time>
      </trkpt>
      <trkpt lat="48.19492" lon="7.31374">
        <ele>266</ele>
        <time>2021-04-26T16:54:09Z</time>
      </trkpt>
      <trkpt lat="48.19471" lon="7.31367">
        <ele>267</ele>
        <time>2021-04-26T16:54:38Z</time>
      </trkpt>
      <trkpt lat="48.19459" lon="7.31357">
        <ele>268</ele>
        <time>2021-04-26T16:54:56Z</time>
      </trkpt>
      <trkpt lat="48.1942" lon="7.31336">
        <ele>270</ele>
        <time>2021-04-26T16:55:51Z</time>
      </trkpt>
      <trkpt lat="48.19426" lon="7.31296">
        <ele>271</ele>
        <time>2021-04-26T16:56:28Z</time>
      </trkpt>
      <trkpt lat="48.19449" lon="7.31227">
        <ele>274</ele>
        <time>2021-04-26T16:57:36Z</time>
      </trkpt>
      <trkpt lat="48.19481" lon="7.31173">
        <ele>274</ele>
        <time>2021-04-26T16:58:41Z</time>
      </trkpt>
      <trkpt lat="48.19549" lon="7.31109">
        <ele>275</ele>
        <time>2021-04-26T17:00:28Z</time>
      </trkpt>
      <trkpt lat="48.19554" lon="7.31071">
        <ele>278</ele>
        <time>2021-04-26T17:01:02Z</time>
      </trkpt>
      <trkpt lat="48.1955" lon="7.31041">
        <ele>283</ele>
        <time>2021-04-26T17:01:29Z</time>
      </trkpt>
      <trkpt lat="48.19571" lon="7.30997">
        <ele>285</ele>
        <time>2021-04-26T17:02:18Z</time>
      </trkpt>
      <trkpt lat="48.19571" lon="7.30984">
        <ele>287</ele>
        <time>2021-04-26T17:02:29Z</time>
      </trkpt>
      <trkpt lat="48.19598" lon="7.30962">
        <ele>285</ele>
        <time>2021-04-26T17:03:10Z</time>
      </trkpt>
      <trkpt lat="48.19675" lon="7.30819">
        <ele>297</ele>
        <time>2021-04-26T17:05:54Z</time>
      </trkpt>
      <trkpt lat="48.19669" lon="7.30706">
        <ele>319</ele>
        <time>2021-04-26T17:07:34Z</time>
      </trkpt>
      <trkpt lat="48.19639" lon="7.30274">
        <ele>389</ele>
        <time>2021-04-26T17:14:01Z</time>
      </trkpt>
      <trkpt lat="48.19662" lon="7.30187">
        <ele>392</ele>
        <time>2021-04-26T17:15:24Z</time>
      </trkpt>
      <trkpt lat="48.19658" lon="7.30083">
        <ele>410</ele>
        <time>2021-04-26T17:16:57Z</time>
      </trkpt>
      <trkpt lat="48.19734" lon="7.30031">
        <ele>397</ele>
        <time>2021-04-26T17:18:48Z</time>
      </trkpt>
      <trkpt lat="48.19775" lon="7.29982">
        <ele>401</ele>
        <time>2021-04-26T17:19:58Z</time>
      </trkpt>
      <trkpt lat="48.1961" lon="7.30052">
        <ele>435</ele>
        <time>2021-04-26T17:23:47Z</time>
      </trkpt>
      <trkpt lat="48.19557" lon="7.30273">
        <ele>427</ele>
        <time>2021-04-26T17:27:16Z</time>
      </trkpt>
      <trkpt lat="48.19504" lon="7.30329">
        <ele>423</ele>
        <time>2021-04-26T17:28:42Z</time>
      </trkpt>
      <trkpt lat="48.19347" lon="7.30301">
        <ele>443</ele>
        <time>2021-04-26T17:32:13Z</time>
      </trkpt>
      <trkpt lat="48.19334" lon="7.30249">
        <ele>454</ele>
        <time>2021-04-26T17:33:03Z</time>
      </trkpt>
      <trkpt lat="48.19228" lon="7.29987">
        <ele>463</ele>
        <time>2021-04-26T17:37:35Z</time>
      </trkpt>
      <trkpt lat="48.1925" lon="7.29884">
        <ele>465</ele>
        <time>2021-04-26T17:39:12Z</time>
      </trkpt>
      <trkpt lat="48.19312" lon="7.29636">
        <ele>491</ele>
        <time>2021-04-26T17:43:07Z</time>
      </trkpt>
      <trkpt lat="48.19302" lon="7.29568">
        <ele>496</ele>
        <time>2021-04-26T17:44:09Z</time>
      </trkpt>
      <trkpt lat="48.19259" lon="7.29474">
        <ele>493</ele>
        <time>2021-04-26T17:45:51Z</time>
      </trkpt>
      <trkpt lat="48.19251" lon="7.29304">
        <ele>506</ele>
        <time>2021-04-26T17:48:22Z</time>
      </trkpt>
      <trkpt lat="48.19239" lon="7.29253">
        <ele>505</ele>
        <time>2021-04-26T17:49:10Z</time>
      </trkpt>
      <trkpt lat="48.19244" lon="7.29053">
        <ele>518</ele>
        <time>2021-04-26T17:52:08Z</time>
      </trkpt>
      <trkpt lat="48.19217" lon="7.28853">
        <ele>524</ele>
        <time>2021-04-26T17:55:10Z</time>
      </trkpt>
      <trkpt lat="48.19195" lon="7.28847">
        <ele>522</ele>
        <time>2021-04-26T17:55:40Z</time>
      </trkpt>
      <trkpt lat="48.19181" lon="7.28798">
        <ele>525</ele>
        <time>2021-04-26T17:56:27Z</time>
      </trkpt>
      <trkpt lat="48.19113" lon="7.28633">
        <ele>554</ele>
        <time>2021-04-26T17:59:20Z</time>
      </trkpt>
      <trkpt lat="48.19093" lon="7.28697">
        <ele>556</ele>
        <time>2021-04-26T18:00:23Z</time>
      </trkpt>
      <trkpt lat="48.19075" lon="7.28837">
        <ele>551</ele>
        <time>2021-04-26T18:02:29Z</time>
      </trkpt>
      <trkpt lat="48.19069" lon="7.288">
        <ele>558</ele>
        <time>2021-04-26T18:03:03Z</time>
      </trkpt>
      <trkpt lat="48.19073" lon="7.28774">
        <ele>559</ele>
        <time>2021-04-26T18:03:27Z</time>
      </trkpt>
      <trkpt lat="48.1904" lon="7.28796">
        <ele>569</ele>
        <time>2021-04-26T18:04:15Z</time>
      </trkpt>
      <trkpt lat="48.19048" lon="7.28776">
        <ele>568</ele>
        <time>2021-04-26T18:04:36Z</time>
      </trkpt>
      <trkpt lat="48.19017" lon="7.28787">
        <ele>579</ele>
        <time>2021-04-26T18:05:19Z</time>
      </trkpt>
      <trkpt lat="48.19025" lon="7.28764">
        <ele>579</ele>
        <time>2021-04-26T18:05:42Z</time>
      </trkpt>
      <trkpt lat="48.18997" lon="7.28775">
        <ele>587</ele>
        <time>2021-04-26T18:06:20Z</time>
      </trkpt>
      <trkpt lat="48.19002" lon="7.28746">
        <ele>590</ele>
        <time>2021-04-26T18:06:47Z</time>
      </trkpt>
      <trkpt lat="48.18958" lon="7.28766">
        <ele>590</ele>
        <time>2021-04-26T18:07:48Z</time>
      </trkpt>
      <trkpt lat="48.1895" lon="7.28714">
        <ele>597</ele>
        <time>2021-04-26T18:08:36Z</time>
      </trkpt>
      <trkpt lat="48.18838" lon="7.28475">
        <ele>629</ele>
        <time>2021-04-26T18:12:56Z</time>
      </trkpt>
      <trkpt lat="48.18819" lon="7.2842">
        <ele>642</ele>
        <time>2021-04-26T18:13:51Z</time>
      </trkpt>
      <trkpt lat="48.18801" lon="7.28405">
        <ele>645</ele>
        <time>2021-04-26T18:14:18Z</time>
      </trkpt>
      <trkpt lat="48.18822" lon="7.28376">
        <ele>649</ele>
        <time>2021-04-26T18:14:56Z</time>
      </trkpt>
      <trkpt lat="48.18798" lon="7.28372">
        <ele>650</ele>
        <time>2021-04-26T18:15:29Z</time>
      </trkpt>
      <trkpt lat="48.18824" lon="7.28255">
        <ele>667</ele>
        <time>2021-04-26T18:17:18Z</time>
      </trkpt>
      <trkpt lat="48.18846" lon="7.28114">
        <ele>683</ele>
        <time>2021-04-26T18:19:27Z</time>
      </trkpt>
      <trkpt lat="48.18896" lon="7.27921">
        <ele>687</ele>
        <time>2021-04-26T18:22:31Z</time>
      </trkpt>
      <trkpt lat="48.18812" lon="7.27803">
        <ele>692</ele>
        <time>2021-04-26T18:25:05Z</time>
      </trkpt>
      <trkpt lat="48.18715" lon="7.27597">
        <ele>687</ele>
        <time>2021-04-26T18:28:49Z</time>
      </trkpt>
      <trkpt lat="48.18742" lon="7.27471">
        <ele>682</ele>
        <time>2021-04-26T18:30:47Z</time>
      </trkpt>
      <trkpt lat="48.18778" lon="7.27372">
        <ele>677</ele>
        <time>2021-04-26T18:32:27Z</time>
      </trkpt>
      <trkpt lat="48.18818" lon="7.26979">
        <ele>680</ele>
        <time>2021-04-26T18:38:21Z</time>
      </trkpt>
      <trkpt lat="48.18814" lon="7.2695">
        <ele>682</ele>
        <time>2021-04-26T18:38:47Z</time>
      </trkpt>
      <trkpt lat="48.1885" lon="7.2681">
        <ele>695</ele>
        <time>2021-04-26T18:41:01Z</time>
      </trkpt>
      <trkpt lat="48.18906" lon="7.26712">
        <ele>708</ele>
        <time>2021-04-26T18:42:56Z</time>
      </trkpt>
      <trkpt lat="48.18976" lon="7.26677">
        <ele>725</ele>
        <time>2021-04-26T18:44:34Z</time>
      </trkpt>
      <trkpt lat="48.19032" lon="7.2669">
        <ele>727</ele>
        <time>2021-04-26T18:45:50Z</time>
      </trkpt>
      <trkpt lat="48.19148" lon="7.26712">
        <ele>727</ele>
        <time>2021-04-26T18:48:26Z</time>
      </trkpt>
      <trkpt lat="48.1922" lon="7.2666">
        <ele>735</ele>
        <time>2021-04-26T18:50:12Z</time>
      </trkpt>
      <trkpt lat="48.19227" lon="7.26613">
        <ele>736</ele>
        <time>2021-04-26T18:50:55Z</time>
      </trkpt>
      <trkpt lat="48.19211" lon="7.2657">
        <ele>737</ele>
        <time>2021-04-26T18:51:39Z</time>
      </trkpt>
      <trkpt lat="48.19171" lon="7.26518">
        <ele>741</ele>
        <time>2021-04-26T18:52:50Z</time>
      </trkpt>
      <trkpt lat="48.19128" lon="7.26448">
        <ele>747</ele>
        <time>2021-04-26T18:54:14Z</time>
      </trkpt>
      <trkpt lat="48.19102" lon="7.26289">
        <ele>756</ele>
        <time>2021-04-26T18:56:40Z</time>
      </trkpt>
      <trkpt lat="48.19121" lon="7.25937">
        <ele>773</ele>
        <time>2021-04-26T19:01:54Z</time>
      </trkpt>
      <trkpt lat="48.19138" lon="7.25789">
        <ele>778</ele>
        <time>2021-04-26T19:04:08Z</time>
      </trkpt>
      <trkpt lat="48.19095" lon="7.25757">
        <ele>786</ele>
        <time>2021-04-26T19:05:12Z</time>
      </trkpt>
      <trkpt lat="48.19034" lon="7.2574">
        <ele>787</ele>
        <time>2021-04-26T19:06:35Z</time>
      </trkpt>
      <trkpt lat="48.19031" lon="7.25782">
        <ele>785</ele>
        <time>2021-04-26T19:07:12Z</time>
      </trkpt>
      <trkpt lat="48.19038" lon="7.25821">
        <ele>784</ele>
        <time>2021-04-26T19:07:48Z</time>
      </trkpt>
      <trkpt lat="48.18998" lon="7.25993">
        <ele>774</ele>
        <time>2021-04-26T19:10:30Z</time>
      </trkpt>
      <trkpt lat="48.18966" lon="7.26016">
        <ele>767</ele>
        <time>2021-04-26T19:11:18Z</time>
      </trkpt>
      <trkpt lat="48.18925" lon="7.26046">
        <ele>758</ele>
        <time>2021-04-26T19:12:19Z</time>
      </trkpt>
      <trkpt lat="48.18895" lon="7.261">
        <ele>749</ele>
        <time>2021-04-26T19:13:21Z</time>
      </trkpt>
      <trkpt lat="48.18891" lon="7.26323">
        <ele>740</ele>
        <time>2021-04-26T19:16:40Z</time>
      </trkpt>
      <trkpt lat="48.18829" lon="7.26497">
        <ele>717</ele>
        <time>2021-04-26T19:19:35Z</time>
      </trkpt>
      <trkpt lat="48.1883" lon="7.2663">
        <ele>709</ele>
        <time>2021-04-26T19:21:33Z</time>
      </trkpt>
      <trkpt lat="48.18835" lon="7.26662">
        <ele>707</ele>
        <time>2021-04-26T19:22:03Z</time>
      </trkpt>
      <trkpt lat="48.18798" lon="7.26589">
        <ele>702</ele>
        <time>2021-04-26T19:23:24Z</time>
      </trkpt>
      <trkpt lat="48.18743" lon="7.26523">
        <ele>683</ele>
        <time>2021-04-26T19:24:58Z</time>
      </trkpt>
      <trkpt lat="48.18725" lon="7.2637">
        <ele>671</ele>
        <time>2021-04-26T19:27:16Z</time>
      </trkpt>
      <trkpt lat="48.18712" lon="7.26265">
        <ele>665</ele>
        <time>2021-04-26T19:28:51Z</time>
      </trkpt>
      <trkpt lat="48.1869" lon="7.26201">
        <ele>659</ele>
        <time>2021-04-26T19:29:55Z</time>
      </trkpt>
      <trkpt lat="48.18649" lon="7.26145">
        <ele>649</ele>
        <time>2021-04-26T19:31:09Z</time>
      </trkpt>
      <trkpt lat="48.186" lon="7.26057">
        <ele>643</ele>
        <time>2021-04-26T19:32:51Z</time>
      </trkpt>
      <trkpt lat="48.18586" lon="7.26016">
        <ele>642</ele>
        <time>2021-04-26T19:33:32Z</time>
      </trkpt>
      <trkpt lat="48.18547" lon="7.26068">
        <ele>642</ele>
        <time>2021-04-26T19:34:42Z</time>
      </trkpt>
      <trkpt lat="48.18534" lon="7.26158">
        <ele>633</ele>
        <time>2021-04-26T19:36:04Z</time>
      </trkpt>
      <trkpt lat="48.185" lon="7.2631">
        <ele>618</ele>
        <time>2021-04-26T19:38:27Z</time>
      </trkpt>
      <trkpt lat="48.18438" lon="7.26495">
        <ele>607</ele>
        <time>2021-04-26T19:41:31Z</time>
      </trkpt>
      <trkpt lat="48.18431" lon="7.26561">
        <ele>600</ele>
        <time>2021-04-26T19:42:30Z</time>
      </trkpt>
      <trkpt lat="48.18436" lon="7.26686">
        <ele>587</ele>
        <time>2021-04-26T19:44:22Z</time>
      </trkpt>
      <trkpt lat="48.18401" lon="7.26823">
        <ele>578</ele>
        <time>2021-04-26T19:46:32Z</time>
      </trkpt>
      <trkpt lat="48.18355" lon="7.26988">
        <ele>573</ele>
        <time>2021-04-26T19:49:11Z</time>
      </trkpt>
      <trkpt lat="48.18335" lon="7.27076">
        <ele>567</ele>
        <time>2021-04-26T19:50:34Z</time>
      </trkpt>
      <trkpt lat="48.18334" lon="7.27173">
        <ele>552</ele>
        <time>2021-04-26T19:52:00Z</time>
      </trkpt>
      <trkpt lat="48.18278" lon="7.27265">
        <ele>541</ele>
        <time>2021-04-26T19:53:51Z</time>
      </trkpt>
      <trkpt lat="48.18197" lon="7.27338">
        <ele>535</ele>
        <time>2021-04-26T19:55:57Z</time>
      </trkpt>
      <trkpt lat="48.18055" lon="7.27544">
        <ele>517</ele>
        <time>2021-04-26T20:00:21Z</time>
      </trkpt>
      <trkpt lat="48.17998" lon="7.27679">
        <ele>492</ele>
        <time>2021-04-26T20:02:43Z</time>
      </trkpt>
      <trkpt lat="48.17981" lon="7.27694">
        <ele>496</ele>
        <time>2021-04-26T20:03:10Z</time>
      </trkpt>
      <trkpt lat="48.17975" lon="7.27763">
        <ele>492</ele>
        <time>2021-04-26T20:04:11Z</time>
      </trkpt>
      <trkpt lat="48.17942" lon="7.27823">
        <ele>496</ele>
        <time>2021-04-26T20:05:21Z</time>
      </trkpt>
      <trkpt lat="48.17909" lon="7.27847">
        <ele>500</ele>
        <time>2021-04-26T20:06:10Z</time>
      </trkpt>
      <trkpt lat="48.17792" lon="7.27937">
        <ele>498</ele>
        <time>2021-04-26T20:09:05Z</time>
      </trkpt>
      <trkpt lat="48.17725" lon="7.28014">
        <ele>483</ele>
        <time>2021-04-26T20:10:58Z</time>
      </trkpt>
      <trkpt lat="48.17682" lon="7.28119">
        <ele>454</ele>
        <time>2021-04-26T20:12:47Z</time>
      </trkpt>
      <trkpt lat="48.17669" lon="7.28156">
        <ele>445</ele>
        <time>2021-04-26T20:13:25Z</time>
      </trkpt>
      <trkpt lat="48.1763" lon="7.28145">
        <ele>451</ele>
        <time>2021-04-26T20:14:18Z</time>
      </trkpt>
      <trkpt lat="48.17576" lon="7.28132">
        <ele>461</ele>
        <time>2021-04-26T20:15:31Z</time>
      </trkpt>
      <trkpt lat="48.17549" lon="7.28203">
        <ele>458</ele>
        <time>2021-04-26T20:16:43Z</time>
      </trkpt>
      <trkpt lat="48.17513" lon="7.28265">
        <ele>457</ele>
        <time>2021-04-26T20:17:56Z</time>
      </trkpt>
      <trkpt lat="48.17446" lon="7.28394">
        <ele>440</ele>
        <time>2021-04-26T20:20:22Z</time>
      </trkpt>
      <trkpt lat="48.17373" lon="7.28553">
        <ele>411</ele>
        <time>2021-04-26T20:23:14Z</time>
      </trkpt>
      <trkpt lat="48.17282" lon="7.28623">
        <ele>403</ele>
        <time>2021-04-26T20:25:30Z</time>
      </trkpt>
      <trkpt lat="48.17199" lon="7.28671">
        <ele>396</ele>
        <time>2021-04-26T20:27:29Z</time>
      </trkpt>
      <trkpt lat="48.17151" lon="7.28739">
        <ele>393</ele>
        <time>2021-04-26T20:28:57Z</time>
      </trkpt>
      <trkpt lat="48.17102" lon="7.28844">
        <ele>386</ele>
        <time>2021-04-26T20:30:51Z</time>
      </trkpt>
      <trkpt lat="48.17073" lon="7.28917">
        <ele>373</ele>
        <time>2021-04-26T20:32:07Z</time>
      </trkpt>
      <trkpt lat="48.17038" lon="7.28958">
        <ele>369.16796875</ele>
      </trkpt>
      <trkpt lat="48.17011" lon="7.28999">
        <ele>365.91796875</ele>
      </trkpt>
      <trkpt lat="48.16994" lon="7.29018">
        <ele>361.8984375</ele>
      </trkpt>
      <trkpt lat="48.16994" lon="7.29019">
        <ele>361.73828125</ele>
      </trkpt>
      <trkpt lat="48.16978" lon="7.29036">
        <ele>358.34765625</ele>
      </trkpt>
      <trkpt lat="48.16972" lon="7.29032">
        <ele>358.21484375</ele>
      </trkpt>
      <trkpt lat="48.16963" lon="7.2902">
        <ele>358.515625</ele>
      </trkpt>
      <trkpt lat="48.16955" lon="7.28998">
        <ele>359.375</ele>
      </trkpt>
      <trkpt lat="48.16954" lon="7.28957">
        <ele>362.8984375</ele>
      </trkpt>
      <trkpt lat="48.16954" lon="7.28925">
        <ele>366.76171875</ele>
      </trkpt>
      <trkpt lat="48.16953" lon="7.28899">
        <ele>370.421875</ele>
      </trkpt>
      <trkpt lat="48.16946" lon="7.28912">
        <ele>367.984375</ele>
      </trkpt>
      <trkpt lat="48.1694" lon="7.28942">
        <ele>363.11328125</ele>
      </trkpt>
      <trkpt lat="48.16919" lon="7.2899">
        <ele>355.65625</ele>
      </trkpt>
      <trkpt lat="48.16916" lon="7.29045">
        <ele>350.9765625</ele>
      </trkpt>
      <trkpt lat="48.16892" lon="7.29084">
        <ele>346.109375</ele>
      </trkpt>
      <trkpt lat="48.1685" lon="7.29128">
        <ele>340.40234375</ele>
      </trkpt>
      <trkpt lat="48.16829" lon="7.29159">
        <ele>336.81640625</ele>
      </trkpt>
      <trkpt lat="48.16818" lon="7.29188">
        <ele>334.30859375</ele>
      </trkpt>
      <trkpt lat="48.16805" lon="7.29229">
        <ele>331.43359375</ele>
      </trkpt>
      <trkpt lat="48.168" lon="7.29264">
        <ele>330.10546875</ele>
      </trkpt>
      <trkpt lat="48.16792" lon="7.29305">
        <ele>328.3125</ele>
      </trkpt>
      <trkpt lat="48.16786" lon="7.29329">
        <ele>327.046875</ele>
      </trkpt>
      <trkpt lat="48.16781" lon="7.29344">
        <ele>326.1015625</ele>
      </trkpt>
      <trkpt lat="48.16776" lon="7.29371">
        <ele>324.3359375</ele>
      </trkpt>
      <trkpt lat="48.16765" lon="7.294">
        <ele>322.20703125</ele>
      </trkpt>
    </trkseg>
  </trk>
</gpx>